createdAt,value
2018-10-16T00:00:59.635Z,10.83
2018-10-16T00:03:28.198Z,10.07
2018-10-16T00:05:56.722Z,10.30
2018-10-16T00:08:25.313Z,10.80
2018-10-16T00:10:53.868Z,9.90
2018-10-16T00:13:22.462Z,10.10
2018-10-16T00:15:51.045Z,10.13
2018-10-16T00:18:19.625Z,9.53
2018-10-16T00:20:48.131Z,10.20
2018-10-16T00:23:16.679Z,9.80
2018-10-16T00:25:45.209Z,9.60
2018-10-16T00:28:13.761Z,8.90
2018-10-16T00:30:42.280Z,9.77
2018-10-16T00:33:10.882Z,9.87
2018-10-16T00:35:39.385Z,9.43
2018-10-16T00:38:07.906Z,9.43
2018-10-16T00:40:36.660Z,9.33
2018-10-16T00:43:05.541Z,10.67
2018-10-16T00:45:34.075Z,9.53
2018-10-16T00:48:02.595Z,9.97
2018-10-16T00:50:31.142Z,9.87
2018-10-16T00:52:59.648Z,9.57
2018-10-16T00:55:28.205Z,9.90
2018-10-16T00:57:56.721Z,9.60
2018-10-16T01:00:25.273Z,9.40
2018-10-16T01:02:53.832Z,9.27
2018-10-16T01:05:22.404Z,9.20
2018-10-16T01:07:50.913Z,9.60
2018-10-16T01:10:19.489Z,9.73
2018-10-16T01:12:47.993Z,9.90
2018-10-16T01:15:16.570Z,10.17
2018-10-16T01:17:45.093Z,10.40
2018-10-16T01:20:14.625Z,10.43
2018-10-16T01:22:43.710Z,9.90
2018-10-16T01:25:13.123Z,8.63
2018-10-16T01:27:41.656Z,10.03
2018-10-16T01:30:10.270Z,9.80
2018-10-16T01:32:39.159Z,9.80
2018-10-16T01:35:09.402Z,9.37
2018-10-16T01:37:37.945Z,10.10
2018-10-16T01:40:08.521Z,9.80
2018-10-16T01:42:37.182Z,10.27
2018-10-16T01:45:06.212Z,10.50
2018-10-16T01:47:34.709Z,9.50
2018-10-16T01:50:03.278Z,9.40
2018-10-16T01:52:31.769Z,9.90
2018-10-16T01:55:00.301Z,9.77
2018-10-16T01:57:28.801Z,9.83
2018-10-16T01:59:57.347Z,9.90
2018-10-16T02:02:25.880Z,10.60
2018-10-16T02:04:54.422Z,10.87
2018-10-16T02:07:23.128Z,11.07
2018-10-16T02:09:51.670Z,10.80
2018-10-16T02:12:20.174Z,10.77
2018-10-16T02:14:48.754Z,10.60
2018-10-16T02:17:17.237Z,10.73
2018-10-16T02:19:45.729Z,10.07
2018-10-16T02:22:14.258Z,10.37
2018-10-16T02:24:42.777Z,9.63
2018-10-16T02:27:11.358Z,9.53
2018-10-16T02:29:39.857Z,10.67
2018-10-16T02:32:08.377Z,9.53
2018-10-16T02:34:36.868Z,10.10
2018-10-16T02:37:05.793Z,8.90
2018-10-16T02:39:34.291Z,9.67
2018-10-16T02:42:02.817Z,9.93
2018-10-16T02:44:31.328Z,9.90
2018-10-16T02:46:59.875Z,10.13
2018-10-16T02:49:28.393Z,10.00
2018-10-16T02:51:56.913Z,9.80
2018-10-16T02:54:25.415Z,9.90
2018-10-16T02:56:53.939Z,10.10
2018-10-16T02:59:22.421Z,9.20
2018-10-16T03:01:50.949Z,9.30
2018-10-16T03:04:19.449Z,10.63
2018-10-16T03:06:47.981Z,9.17
2018-10-16T03:09:16.469Z,9.97
2018-10-16T03:11:45.038Z,10.53
2018-10-16T03:14:13.542Z,10.50
2018-10-16T03:16:42.122Z,10.10
2018-10-16T03:19:10.632Z,10.00
2018-10-16T03:21:39.149Z,9.90
2018-10-16T03:24:09.069Z,10.17
2018-10-16T03:26:38.073Z,10.03
2018-10-16T03:29:06.834Z,10.50
2018-10-16T03:31:35.381Z,9.87
2018-10-16T03:34:03.941Z,10.10
2018-10-16T03:36:32.470Z,9.70
2018-10-16T03:39:00.978Z,10.53
2018-10-16T03:41:29.498Z,10.43
2018-10-16T03:44:01.510Z,10.57
2018-10-16T03:46:30.322Z,9.87
2018-10-16T03:48:58.820Z,10.00
2018-10-16T03:51:27.316Z,10.07
2018-10-16T03:53:56.798Z,10.10
2018-10-16T03:56:26.202Z,9.67
2018-10-16T03:58:54.796Z,10.23
2018-10-16T04:01:24.828Z,10.23
2018-10-16T04:03:53.371Z,10.27
2018-10-16T04:06:22.566Z,10.20
2018-10-16T04:08:51.989Z,10.90
2018-10-16T04:11:20.636Z,9.87
2018-10-16T04:13:49.713Z,11.17
2018-10-16T04:16:18.629Z,10.27
2018-10-16T04:18:47.173Z,10.13
2018-10-16T04:21:15.701Z,11.00
2018-10-16T04:23:44.522Z,9.83
2018-10-16T04:26:13.688Z,10.17
2018-10-16T04:28:42.233Z,11.00
2018-10-16T04:31:11.471Z,10.50
2018-10-16T04:33:40.582Z,11.17
2018-10-16T04:36:09.101Z,10.80
2018-10-16T04:38:37.642Z,10.63
2018-10-16T04:41:06.160Z,11.40
2018-10-16T04:43:34.763Z,11.30
2018-10-16T04:46:03.352Z,10.37
2018-10-16T04:48:31.897Z,10.40
2018-10-16T04:51:00.398Z,10.43
2018-10-16T04:53:28.946Z,10.77
2018-10-16T04:55:57.485Z,11.93
2018-10-16T04:58:26.036Z,11.00
2018-10-16T05:00:54.571Z,11.83
2018-10-16T05:03:23.125Z,11.13
2018-10-16T05:05:51.697Z,10.97
2018-10-16T05:08:20.235Z,10.60
2018-10-16T05:10:48.806Z,11.07
2018-10-16T05:13:17.437Z,12.63
2018-10-16T05:15:45.948Z,13.00
2018-10-16T05:18:18.993Z,11.93
2018-10-16T05:20:47.764Z,12.17
2018-10-16T05:23:16.326Z,10.83
2018-10-16T05:25:44.964Z,11.43
2018-10-16T05:28:13.773Z,10.73
2018-10-16T05:30:42.330Z,10.43
2018-10-16T05:33:11.046Z,10.87
2018-10-16T05:35:39.612Z,10.97
2018-10-16T05:38:09.492Z,10.40
2018-10-16T05:40:38.101Z,10.83
2018-10-16T05:43:07.150Z,10.63
2018-10-16T05:45:40.525Z,11.30
2018-10-16T05:48:14.251Z,10.90
2018-10-16T05:50:44.578Z,11.63
2018-10-16T05:53:16.562Z,10.90
2018-10-16T05:55:55.719Z,11.00
2018-10-16T05:58:24.898Z,10.40
2018-10-16T06:00:54.182Z,10.57
2018-10-16T06:03:22.780Z,11.00
2018-10-16T06:05:55.551Z,11.70
2018-10-16T06:08:24.873Z,11.73
2018-10-16T06:10:54.078Z,11.30
2018-10-16T06:13:23.177Z,12.03
2018-10-16T06:15:52.522Z,11.47
2018-10-16T06:18:21.045Z,11.20
2018-10-16T06:20:49.765Z,12.63
2018-10-16T06:23:18.422Z,12.47
2018-10-16T06:25:47.001Z,12.17
2018-10-16T06:28:26.111Z,11.80
2018-10-16T06:30:55.461Z,11.57
2018-10-16T06:33:26.782Z,12.37
2018-10-16T06:35:55.391Z,11.57
2018-10-16T06:38:24.035Z,11.13
2018-10-16T06:40:52.787Z,11.43
2018-10-16T06:43:21.253Z,12.00
2018-10-16T06:45:49.998Z,11.07
2018-10-16T06:48:18.907Z,11.03
2018-10-16T06:50:47.294Z,10.77
2018-10-16T06:53:15.912Z,12.03
2018-10-16T06:55:44.476Z,11.80
2018-10-16T06:58:13.073Z,12.00
2018-10-16T07:00:41.649Z,12.10
2018-10-16T07:03:10.201Z,11.67
2018-10-16T07:05:40.236Z,10.83
2018-10-16T07:08:08.788Z,10.97
2018-10-16T07:10:37.494Z,11.50
2018-10-16T07:13:06.066Z,12.00
2018-10-16T07:15:34.826Z,13.03
2018-10-16T07:18:03.773Z,13.07
2018-10-16T07:20:33.206Z,12.40
2018-10-16T07:23:02.386Z,12.87
2018-10-16T07:25:31.173Z,12.43
2018-10-16T07:27:59.848Z,14.30
2018-10-16T07:30:28.578Z,14.53
2018-10-16T07:32:57.153Z,13.33
2018-10-16T07:35:40.703Z,14.57
2018-10-16T07:38:09.422Z,15.67
2018-10-16T07:40:37.924Z,13.23
2018-10-16T07:43:06.510Z,14.43
2018-10-16T07:45:35.788Z,16.10
2018-10-16T07:48:04.910Z,17.30
2018-10-16T07:50:33.549Z,16.27
2018-10-16T07:53:03.019Z,15.77
2018-10-16T07:55:32.190Z,14.33
2018-10-16T07:58:01.063Z,12.77
2018-10-16T08:00:29.621Z,14.33
2018-10-16T08:02:58.241Z,12.93
2018-10-16T08:05:26.801Z,12.10
2018-10-16T08:07:55.329Z,12.17
2018-10-16T08:10:23.914Z,13.97
2018-10-16T08:12:52.494Z,13.73
2018-10-16T08:15:21.071Z,36.93
2018-10-16T08:17:49.650Z,33.77
2018-10-16T08:20:18.364Z,34.27
2018-10-16T08:22:46.922Z,32.30
2018-10-16T08:25:15.598Z,32.33
2018-10-16T08:27:44.138Z,24.67
2018-10-16T08:30:12.734Z,21.40
2018-10-16T08:32:41.331Z,16.30
2018-10-16T08:35:10.138Z,17.33
2018-10-16T08:39:53.028Z,14.93
2018-10-16T08:43:40.381Z,14.60
2018-10-16T08:46:20.401Z,13.80
2018-10-16T08:49:00.778Z,13.53
2018-10-16T08:51:48.597Z,13.87
2018-10-16T08:54:17.186Z,12.80
2018-10-16T08:56:45.766Z,12.10
2018-10-16T08:59:14.394Z,11.60
2018-10-16T09:01:43.062Z,11.33
2018-10-16T09:04:11.652Z,11.20
2018-10-16T09:06:40.887Z,11.33
2018-10-16T09:09:11.761Z,10.67
2018-10-16T09:11:41.842Z,9.13
2018-10-16T09:14:10.519Z,9.57
2018-10-16T09:16:39.043Z,8.87
2018-10-16T09:19:07.649Z,8.37
2018-10-16T09:21:37.030Z,8.70
2018-10-16T09:24:05.622Z,8.23
2018-10-16T09:26:34.353Z,7.80
2018-10-16T09:29:02.924Z,8.03
2018-10-16T09:31:31.476Z,8.40
2018-10-16T09:34:00.042Z,7.57
2018-10-16T09:36:28.579Z,7.03
2018-10-16T09:38:57.144Z,6.67
2018-10-16T09:41:25.743Z,6.90
2018-10-16T09:43:56.451Z,6.20
2018-10-16T09:46:25.093Z,6.53
2018-10-16T09:48:53.747Z,6.43
2018-10-16T09:51:22.274Z,6.80
2018-10-16T09:53:50.856Z,6.10
2018-10-16T09:56:19.466Z,5.80
2018-10-16T09:58:48.132Z,6.23
2018-10-16T10:01:22.071Z,6.20
2018-10-16T10:03:50.774Z,6.67
2018-10-16T10:06:19.302Z,6.03
2018-10-16T10:08:47.850Z,6.77
2018-10-16T10:11:16.597Z,6.23
2018-10-16T10:13:45.335Z,6.90
2018-10-16T10:16:13.857Z,6.20
2018-10-16T10:18:42.469Z,6.43
2018-10-16T10:21:11.121Z,6.40
2018-10-16T10:23:40.894Z,6.27
2018-10-16T10:26:09.634Z,6.47
2018-10-16T10:28:38.226Z,5.73
2018-10-16T10:31:07.133Z,5.93
2018-10-16T10:33:36.024Z,5.50
2018-10-16T10:36:04.906Z,6.00
2018-10-16T10:38:33.514Z,6.00
2018-10-16T10:41:04.755Z,6.20
2018-10-16T10:43:33.390Z,6.03
2018-10-16T10:46:01.950Z,5.90
2018-10-16T10:48:33.798Z,5.97
2018-10-16T10:51:02.640Z,6.20
2018-10-16T10:53:31.121Z,5.93
2018-10-16T10:56:04.050Z,5.80
2018-10-16T10:58:32.834Z,5.47
2018-10-16T11:01:01.440Z,5.60
2018-10-16T11:03:30.259Z,6.20
2018-10-16T11:05:58.725Z,5.77
2018-10-16T11:08:27.337Z,5.43
2018-10-16T11:10:55.986Z,5.07
2018-10-16T11:13:26.731Z,5.93
2018-10-16T11:15:55.278Z,5.33
2018-10-16T11:18:23.831Z,5.70
2018-10-16T11:20:52.577Z,5.50
2018-10-16T11:23:21.233Z,6.33
2018-10-16T11:25:49.870Z,5.97
2018-10-16T11:28:18.432Z,5.57
2018-10-16T11:30:47.001Z,5.90
2018-10-16T11:33:15.718Z,5.70
2018-10-16T11:35:44.221Z,5.53
2018-10-16T11:38:17.705Z,5.77
2018-10-16T11:40:46.293Z,5.80
2018-10-16T11:43:14.845Z,5.90
2018-10-16T11:45:43.489Z,5.43
2018-10-16T11:48:11.961Z,6.20
2018-10-16T11:50:40.522Z,5.50
2018-10-16T11:53:09.075Z,5.70
2018-10-16T11:55:39.176Z,5.53
2018-10-16T11:58:07.879Z,5.47
2018-10-16T12:00:36.478Z,5.80
2018-10-16T12:03:07.277Z,5.80
2018-10-16T12:05:36.029Z,5.57
2018-10-16T12:08:04.746Z,6.00
2018-10-16T12:10:33.444Z,5.00
2018-10-16T12:13:02.204Z,5.40
2018-10-16T12:15:30.738Z,5.43
2018-10-16T12:18:06.965Z,4.80
2018-10-16T12:20:40.808Z,5.33
2018-10-16T12:23:09.349Z,5.70
2018-10-16T12:25:39.674Z,5.40
2018-10-16T12:28:08.407Z,4.73
2018-10-16T12:30:36.984Z,5.23
2018-10-16T12:33:05.547Z,4.77
2018-10-16T12:35:34.130Z,4.90
2018-10-16T12:38:02.681Z,5.73
2018-10-16T12:40:31.240Z,5.37
2018-10-16T12:42:59.904Z,4.40
2018-10-16T12:45:28.449Z,4.70
2018-10-16T12:47:57.030Z,5.30
2018-10-16T12:50:25.726Z,5.20
2018-10-16T12:52:54.146Z,5.30
2018-10-16T12:55:22.722Z,4.93
2018-10-16T12:57:51.390Z,4.90
2018-10-16T13:00:19.991Z,5.33
2018-10-16T13:02:49.439Z,5.10
2018-10-16T13:05:18.012Z,4.67
2018-10-16T13:07:46.629Z,5.30
2018-10-16T13:10:17.314Z,5.00
2018-10-16T13:12:46.682Z,5.00
2018-10-16T13:15:16.326Z,5.03
2018-10-16T13:17:44.833Z,4.80
2018-10-16T13:20:14.642Z,4.47
2018-10-16T13:22:44.248Z,4.97
2018-10-16T13:25:14.070Z,4.33
2018-10-16T13:27:42.601Z,5.03
2018-10-16T13:30:13.244Z,4.67
2018-10-16T13:32:41.837Z,5.27
2018-10-16T13:35:13.006Z,5.30
2018-10-16T13:37:42.413Z,4.73
2018-10-16T13:40:11.809Z,5.10
2018-10-16T13:42:40.449Z,4.67
2018-10-16T13:45:10.601Z,5.03
2018-10-16T13:47:41.164Z,4.13
2018-10-16T13:50:12.464Z,4.73
2018-10-16T13:52:41.320Z,4.40
2018-10-16T13:55:10.847Z,4.37
2018-10-16T13:57:39.678Z,4.70
2018-10-16T14:00:16.952Z,4.57
2018-10-16T14:02:46.765Z,4.23
2018-10-16T14:05:15.622Z,4.00
2018-10-16T14:07:44.236Z,4.80
2018-10-16T14:10:13.909Z,4.90
2018-10-16T14:12:43.481Z,4.10
2018-10-16T14:15:12.666Z,4.27
2018-10-16T14:17:41.258Z,4.20
2018-10-16T14:20:10.439Z,4.43
2018-10-16T14:22:40.056Z,4.73
2018-10-16T14:25:10.283Z,4.30
2018-10-16T14:27:39.676Z,5.17
2018-10-16T14:30:09.818Z,4.87
2018-10-16T14:32:38.368Z,4.97
2018-10-16T14:35:07.454Z,4.87
2018-10-16T14:37:36.012Z,4.70
2018-10-16T14:40:04.770Z,4.50
2018-10-16T14:42:33.242Z,4.13
2018-10-16T14:45:01.773Z,4.40
2018-10-16T14:47:30.295Z,4.50
2018-10-16T14:49:58.804Z,4.07
2018-10-16T14:52:27.333Z,4.13
2018-10-16T14:54:55.830Z,4.13
2018-10-16T14:57:24.353Z,4.30
2018-10-16T14:59:52.946Z,4.63
2018-10-16T15:02:21.490Z,3.87
2018-10-16T15:04:50.025Z,4.30
2018-10-16T15:07:18.586Z,4.30
2018-10-16T15:09:47.140Z,4.60
2018-10-16T15:12:15.626Z,4.53
2018-10-16T15:14:44.153Z,4.20
2018-10-16T15:17:12.677Z,4.33
2018-10-16T15:19:41.177Z,4.00
2018-10-16T15:22:09.888Z,4.50
2018-10-16T15:24:38.345Z,4.63
2018-10-16T15:27:06.894Z,4.33
2018-10-16T15:29:35.445Z,4.40
2018-10-16T15:32:04.043Z,5.20
2018-10-16T15:34:32.564Z,4.53
2018-10-16T15:37:01.066Z,4.47
2018-10-16T15:39:29.588Z,4.80
2018-10-16T15:41:58.237Z,4.70
2018-10-16T15:44:26.751Z,4.20
2018-10-16T15:46:55.248Z,5.00
2018-10-16T15:49:23.975Z,4.50
2018-10-16T15:51:52.507Z,4.57
2018-10-16T15:54:21.049Z,4.60
2018-10-16T15:56:49.562Z,4.70
2018-10-16T15:59:18.137Z,4.47
2018-10-16T16:01:46.636Z,5.17
2018-10-16T16:04:15.277Z,5.30
2018-10-16T16:06:43.785Z,5.07
2018-10-16T16:09:12.607Z,4.67
2018-10-16T16:11:41.189Z,4.83
2018-10-16T16:14:09.734Z,5.03
2018-10-16T16:16:38.248Z,4.93
2018-10-16T16:19:07.410Z,5.03
2018-10-16T16:21:35.926Z,4.97
2018-10-16T16:24:04.539Z,4.97
2018-10-16T16:26:33.081Z,5.33
2018-10-16T16:29:01.610Z,5.40
2018-10-16T16:31:30.219Z,5.00
2018-10-16T16:33:58.796Z,6.20
2018-10-16T16:36:27.366Z,5.70
2018-10-16T16:38:55.942Z,5.23
2018-10-16T16:41:24.445Z,5.37
2018-10-16T16:43:53.086Z,5.83
2018-10-16T16:46:21.525Z,5.70
2018-10-16T16:48:50.065Z,5.97
2018-10-16T16:51:18.644Z,6.00
2018-10-16T16:53:47.181Z,5.40
2018-10-16T16:56:15.861Z,5.97
2018-10-16T16:58:44.247Z,5.93
2018-10-16T17:01:12.805Z,5.50
2018-10-16T17:03:41.313Z,6.50
2018-10-16T17:06:09.886Z,5.13
2018-10-16T17:08:38.397Z,5.40
2018-10-16T17:11:06.926Z,5.37
2018-10-16T17:13:35.414Z,5.10
2018-10-16T17:16:04.039Z,5.33
2018-10-16T17:18:32.493Z,5.57
2018-10-16T17:21:01.054Z,5.30
2018-10-16T17:23:29.538Z,5.43
2018-10-16T17:25:58.422Z,5.80
2018-10-16T17:28:26.831Z,6.57
2018-10-16T17:30:55.380Z,6.47
2018-10-16T17:33:23.912Z,7.00
2018-10-16T17:35:52.466Z,7.00
2018-10-16T17:38:21.018Z,6.37
2018-10-16T17:40:49.615Z,6.77
2018-10-16T17:43:18.153Z,6.57
2018-10-16T17:45:46.734Z,6.50
2018-10-16T17:48:15.381Z,6.80
2018-10-16T17:50:43.895Z,6.57
2018-10-16T17:53:12.440Z,7.40
2018-10-16T17:55:41.062Z,7.60
2018-10-16T17:58:09.577Z,7.03
2018-10-16T18:00:38.138Z,7.20
2018-10-16T18:03:07.002Z,7.40
2018-10-16T18:05:35.485Z,7.20
2018-10-16T18:08:04.040Z,7.93
2018-10-16T18:10:32.593Z,8.40
2018-10-16T18:13:01.158Z,8.50
2018-10-16T18:15:29.904Z,8.43
2018-10-16T18:17:58.505Z,8.27
2018-10-16T18:20:27.049Z,7.27
2018-10-16T18:22:55.703Z,7.40
2018-10-16T18:25:24.289Z,8.17
2018-10-16T18:27:52.843Z,8.57
2018-10-16T18:30:21.350Z,8.23
2018-10-16T18:32:50.022Z,8.50
2018-10-16T18:35:18.623Z,7.90
2018-10-16T18:37:47.213Z,8.63
2018-10-16T18:40:16.117Z,8.10
2018-10-16T18:42:45.217Z,9.30
2018-10-16T18:45:14.587Z,7.97
2018-10-16T18:47:43.154Z,8.60
2018-10-16T18:50:12.997Z,8.33
2018-10-16T18:52:42.101Z,7.70
2018-10-16T18:55:12.112Z,8.80
2018-10-16T18:57:40.670Z,8.13
2018-10-16T19:00:11.995Z,7.80
2018-10-16T19:02:41.613Z,7.70
2018-10-16T19:05:10.844Z,8.63
2018-10-16T19:07:40.073Z,8.53
2018-10-16T19:10:09.393Z,7.93
2018-10-16T19:12:39.497Z,8.60
2018-10-16T19:15:09.652Z,8.13
2018-10-16T19:17:38.133Z,9.27
2018-10-16T19:20:08.360Z,8.63
2018-10-16T19:22:39.180Z,9.00
2018-10-16T19:25:11.650Z,7.60
2018-10-16T19:27:43.043Z,10.13
2018-10-16T19:30:17.174Z,9.63
2018-10-16T19:32:45.767Z,9.80
2018-10-16T19:35:16.173Z,9.10
2018-10-16T19:40:26.809Z,8.83
2018-10-16T19:42:57.339Z,8.80
2018-10-16T19:45:25.946Z,9.33
2018-10-16T19:47:56.008Z,8.27
2018-10-16T19:50:27.969Z,9.03
2018-10-16T19:52:57.601Z,9.27
2018-10-16T19:55:29.837Z,10.00
2018-10-16T19:58:04.700Z,8.40
2018-10-16T20:00:33.260Z,8.47
2018-10-16T20:03:03.627Z,8.83
2018-10-16T20:05:33.925Z,8.80
2018-10-16T20:08:03.566Z,9.13
2018-10-16T20:10:33.095Z,9.20
2018-10-16T20:13:01.653Z,9.70
2018-10-16T20:15:30.193Z,8.90
2018-10-16T20:17:58.701Z,8.93
2018-10-16T20:20:27.196Z,8.70
2018-10-16T20:22:55.740Z,9.63
2018-10-16T20:25:24.375Z,9.13
2018-10-16T20:27:52.872Z,8.90
2018-10-16T20:30:21.372Z,9.47
2018-10-16T20:32:49.941Z,8.97
2018-10-16T20:35:18.465Z,9.30
2018-10-16T20:37:46.996Z,9.43
2018-10-16T20:40:15.495Z,9.27
2018-10-16T20:42:44.037Z,9.60
2018-10-16T20:45:12.529Z,9.47
2018-10-16T20:47:41.159Z,10.40
2018-10-16T20:50:09.591Z,10.57
2018-10-16T20:52:38.558Z,10.47
2018-10-16T20:55:07.898Z,9.73
2018-10-16T20:57:36.673Z,9.50
2018-10-16T21:00:05.726Z,9.03
2018-10-16T21:02:34.222Z,9.30
2018-10-16T21:05:02.910Z,9.20
2018-10-16T21:07:31.319Z,9.47
2018-10-16T21:09:59.803Z,9.33
2018-10-16T21:12:28.302Z,9.40
2018-10-16T21:14:56.837Z,9.43
2018-10-16T21:17:25.331Z,9.63
2018-10-16T21:19:53.853Z,9.57
2018-10-16T21:22:22.344Z,9.10
2018-10-16T21:24:50.904Z,9.00
2018-10-16T21:27:19.424Z,9.67
2018-10-16T21:29:47.947Z,10.07
2018-10-16T21:32:16.439Z,10.20
2018-10-16T21:34:44.960Z,9.80
2018-10-16T21:37:13.513Z,9.90
2018-10-16T21:39:42.046Z,9.33
2018-10-16T21:42:10.558Z,9.03
2018-10-16T21:44:39.131Z,9.57
2018-10-16T21:47:07.662Z,8.37
2018-10-16T21:49:36.189Z,9.67
2018-10-16T21:52:04.739Z,10.13
2018-10-16T21:54:33.413Z,9.37
2018-10-16T21:57:01.893Z,9.70
2018-10-16T21:59:30.511Z,10.37
2018-10-16T22:02:04.326Z,9.30
2018-10-16T22:04:32.882Z,9.33
2018-10-16T22:07:01.388Z,9.73
2018-10-16T22:09:29.926Z,8.80
2018-10-16T22:11:58.429Z,9.90
2018-10-16T22:14:26.973Z,9.80
2018-10-16T22:16:55.545Z,9.90
2018-10-16T22:19:24.010Z,9.17
2018-10-16T22:21:52.505Z,10.37
2018-10-16T22:24:21.041Z,8.93
2018-10-16T22:26:49.584Z,9.60
2018-10-16T22:29:18.192Z,9.70
2018-10-16T22:31:46.678Z,8.73
2018-10-16T22:34:15.218Z,9.60
2018-10-16T22:36:43.723Z,9.13
2018-10-16T22:39:12.277Z,9.50
2018-10-16T22:41:40.794Z,9.80
2018-10-16T22:44:09.905Z,10.67
2018-10-16T22:46:38.933Z,10.00
2018-10-16T22:49:07.627Z,9.23
2018-10-16T22:51:36.148Z,9.33
2018-10-16T22:54:04.713Z,8.40
2018-10-16T22:56:33.538Z,9.50
2018-10-16T22:59:02.793Z,9.47
2018-10-16T23:01:31.881Z,9.63
2018-10-16T23:04:00.401Z,9.67
2018-10-16T23:06:28.948Z,9.23
2018-10-16T23:08:57.471Z,9.50
2018-10-16T23:11:26.091Z,10.30
2018-10-16T23:13:54.606Z,10.30
2018-10-16T23:16:23.154Z,10.10
2018-10-16T23:18:51.722Z,9.97
2018-10-16T23:21:20.241Z,9.50
2018-10-16T23:23:48.756Z,9.43
2018-10-16T23:26:17.392Z,10.00
2018-10-16T23:28:45.921Z,9.87
2018-10-16T23:31:14.537Z,9.83
2018-10-16T23:33:43.028Z,8.93
2018-10-16T23:36:11.582Z,9.90
2018-10-16T23:38:40.109Z,10.07
2018-10-16T23:41:08.750Z,8.80
2018-10-16T23:43:37.262Z,9.93
2018-10-16T23:46:06.334Z,9.37
2018-10-16T23:48:34.924Z,9.53
2018-10-16T23:51:03.479Z,10.03
2018-10-16T23:53:32.029Z,8.63
2018-10-16T23:56:00.592Z,9.63
2018-10-16T23:58:29.105Z,9.23
